Time;durP1;ratioP1;P1;durP2;ratioP2;P2;SDS_P1;SDS_P2;PMS_P1;PMS_P2;Temp;Humidity;BMP_temperature;BMP_pressure;BME280_temperature;BME280_humidity;BME280_pressure;Samples;Min_cycle;Max_cycle;Signal;HPM_P1;HPM_P2
2022/07/19 00:04:17;;;;;;;6.28;2.70;;;;;20.40;101294.00;;;;10453013;28;20273;-79
2022/07/19 00:09:19;;;;;;;7.20;3.38;;;;;20.40;101300.00;;;;10463634;28;20268;-79
2022/07/19 00:14:21;;;;;;;4.88;2.65;;;;;20.40;101291.00;;;;10448234;28;20679;-79
2022/07/19 00:19:23;;;;;;;8.48;2.45;;;;;20.30;101286.00;;;;10463565;28;20232;-79
2022/07/19 00:24:25;;;;;;;5.15;3.00;;;;;20.20;101293.00;;;;10405930;28;20198;-80
2022/07/19 00:29:27;;;;;;;9.63;2.92;;;;;20.10;101281.00;;;;10406279;28;20642;-79
2022/07/19 00:34:29;;;;;;;4.35;2.55;;;;;20.10;101276.00;;;;10437512;28;20193;-79
2022/07/19 00:39:31;;;;;;;6.13;2.75;;;;;20.00;101270.00;;;;10443184;28;20297;-79
2022/07/19 00:44:33;;;;;;;5.60;3.13;;;;;19.90;101269.00;;;;10442983;28;20254;-79
2022/07/19 00:49:35;;;;;;;6.18;2.85;;;;;19.90;101277.00;;;;10445552;28;20186;-79
2022/07/19 00:54:39;;;;;;;3.65;2.25;;;;;19.80;101265.00;;;;10420026;28;20194;-79
2022/07/19 00:59:43;;;;;;;3.53;2.55;;;;;19.70;101257.00;;;;10437459;28;20222;-79
2022/07/19 01:04:45;;;;;;;3.83;2.30;;;;;19.60;101256.00;;;;10438337;28;20194;-79
2022/07/19 01:09:48;;;;;;;9.02;2.63;;;;;19.60;101256.00;;;;10439662;28;20197;-79
2022/07/19 01:14:56;;;;;;;6.80;3.20;;;;;19.50;101249.00;;;;10462346;28;20189;-79
2022/07/19 01:19:58;;;;;;;8.10;3.15;;;;;19.40;101248.00;;;;10436237;28;20217;-79
2022/07/19 01:25:00;;;;;;;7.00;2.97;;;;;19.30;101241.00;;;;10456440;28;20259;-79
2022/07/19 01:30:09;;;;;;;8.73;2.50;;;;;19.30;101247.00;;;;10437456;28;20178;-79
2022/07/19 01:35:12;;;;;;;8.98;3.25;;;;;19.10;101250.00;;;;10456063;28;20322;-79
2022/07/19 01:40:16;;;;;;;6.75;2.83;;;;;19.10;101251.00;;;;10461566;28;20223;-79
2022/07/19 01:45:19;;;;;;;5.13;2.83;;;;;19.00;101247.00;;;;10445451;28;20714;-79
2022/07/19 01:50:21;;;;;;;3.50;2.50;;;;;18.90;101241.00;;;;10460744;28;20713;-79
2022/07/19 01:55:23;;;;;;;8.13;3.22;;;;;18.90;101242.00;;;;10460925;28;20218;-79
2022/07/19 02:00:25;;;;;;;6.78;3.03;;;;;18.90;101237.00;;;;10418483;28;20234;-79
2022/07/19 02:05:27;;;;;;;5.88;2.78;;;;;18.80;101236.00;;;;10459656;28;20288;-79
2022/07/19 02:10:29;;;;;;;11.43;3.33;;;;;18.80;101240.00;;;;10469095;28;20186;-79
2022/07/19 02:15:31;;;;;;;6.78;3.22;;;;;18.70;101232.00;;;;10447962;28;20201;-79
2022/07/19 02:20:33;;;;;;;7.35;2.58;;;;;18.60;101228.00;;;;10501359;28;20271;-79
2022/07/19 02:25:35;;;;;;;9.20;3.72;;;;;18.60;101228.00;;;;10452217;28;20219;-79
2022/07/19 02:30:37;;;;;;;5.00;2.80;;;;;18.50;101224.00;;;;10451558;28;20272;-79
2022/07/19 02:35:39;;;;;;;4.83;2.63;;;;;18.60;101217.00;;;;10435643;28;20241;-79
2022/07/19 02:40:42;;;;;;;4.90;3.00;;;;;18.60;101227.00;;;;10451397;28;20178;-79
2022/07/19 02:45:43;;;;;;;6.13;2.77;;;;;18.50;101224.00;;;;10448143;28;20660;-79
2022/07/19 02:50:46;;;;;;;6.70;3.30;;;;;18.40;101211.00;;;;10429645;28;20239;-79
2022/07/19 02:55:48;;;;;;;7.87;3.17;;;;;18.20;101214.00;;;;10450897;28;20209;-79
2022/07/19 03:00:50;;;;;;;5.53;3.07;;;;;18.20;101216.00;;;;10449668;28;20247;-79
2022/07/19 03:05:52;;;;;;;4.33;2.80;;;;;18.10;101219.00;;;;10467401;28;20178;-79
2022/07/19 03:10:54;;;;;;;5.47;2.57;;;;;18.00;101216.00;;;;10465741;28;20194;-79
2022/07/19 03:15:56;;;;;;;6.70;2.73;;;;;18.00;101220.00;;;;10461453;28;20212;-79
2022/07/19 03:20:58;;;;;;;5.97;2.90;;;;;17.90;101211.00;;;;10465762;28;20644;-79
2022/07/19 03:26:03;;;;;;;5.60;2.90;;;;;17.80;101211.00;;;;10483327;28;20162;-79
2022/07/19 03:31:05;;;;;;;5.00;3.07;;;;;17.70;101202.00;;;;10480931;28;20221;-79
2022/07/19 03:36:07;;;;;;;4.23;2.73;;;;;17.70;101212.00;;;;10482232;28;20205;-79
2022/07/19 03:41:09;;;;;;;6.43;3.00;;;;;17.60;101204.00;;;;10464243;28;20201;-79
2022/07/19 03:46:12;;;;;;;4.10;2.87;;;;;17.60;101208.00;;;;10456529;28;20276;-79
2022/07/19 03:51:14;;;;;;;6.80;3.33;;;;;17.60;101208.00;;;;10408748;28;20190;-79
2022/07/19 03:56:17;;;;;;;4.60;2.87;;;;;17.60;101200.00;;;;10412290;28;20567;-79
2022/07/19 04:01:19;;;;;;;4.20;2.80;;;;;17.60;101197.00;;;;10459240;28;20207;-79
2022/07/19 04:06:35;;;;;;;6.33;2.97;;;;;17.70;101195.00;;;;10424973;28;20274;-79
2022/07/19 04:11:37;;;;;;;12.53;3.63;;;;;17.80;101206.00;;;;10431831;28;20221;-79
2022/07/19 04:16:39;;;;;;;8.80;3.13;;;;;17.90;101202.00;;;;10463996;28;20288;-79
2022/07/19 04:21:41;;;;;;;3.43;2.53;;;;;17.90;101197.00;;;;10447363;28;20190;-79
2022/07/19 04:26:43;;;;;;;4.77;3.10;;;;;18.00;101197.00;;;;10463103;28;20239;-79
2022/07/19 04:31:45;;;;;;;7.23;3.00;;;;;18.20;101188.00;;;;10463206;28;20224;-79
2022/07/19 04:36:47;;;;;;;6.80;2.83;;;;;18.40;101200.00;;;;10465163;28;20726;-79
2022/07/19 04:41:49;;;;;;;3.27;2.97;;;;;18.60;101204.00;;;;10462478;28;20288;-79
2022/07/19 04:46:51;;;;;;;6.10;3.47;;;;;18.70;101210.00;;;;10450381;28;20198;-79
2022/07/19 04:51:53;;;;;;;5.67;3.17;;;;;18.90;101203.00;;;;10457163;28;20239;-79
2022/07/19 04:56:55;;;;;;;7.78;2.88;;;;;19.00;101201.00;;;;10426718;28;20259;-79
2022/07/19 05:01:57;;;;;;;6.80;3.00;;;;;19.20;101198.00;;;;10425377;28;20218;-79
2022/07/19 05:06:59;;;;;;;6.45;3.25;;;;;19.50;101208.00;;;;10446228;28;20220;-79
2022/07/19 05:12:05;;;;;;;5.65;3.28;;;;;19.90;101197.00;;;;10495169;28;20244;-79
2022/07/19 05:17:07;;;;;;;7.57;2.88;;;;;20.10;101199.00;;;;10478934;28;20197;-79
2022/07/19 05:22:09;;;;;;;5.30;2.78;;;;;20.40;101193.00;;;;10494278;28;20194;-79
2022/07/19 05:27:11;;;;;;;3.67;2.83;;;;;20.90;101199.00;;;;10445270;28;20215;-79
2022/07/19 05:32:13;;;;;;;3.20;2.80;;;;;21.40;101193.00;;;;10403880;28;20206;-79
2022/07/19 05:37:15;;;;;;;8.18;2.58;;;;;21.90;101198.00;;;;10427222;28;20213;-79
2022/07/19 05:42:17;;;;;;;5.03;2.53;;;;;22.40;101199.00;;;;10449919;28;20251;-79
2022/07/19 05:47:19;;;;;;;6.53;2.42;;;;;23.10;101204.00;;;;10486586;28;20189;-79
2022/07/19 05:52:21;;;;;;;2.88;2.00;;;;;24.10;101201.00;;;;10421551;28;20189;-79
2022/07/19 05:57:27;;;;;;;3.85;2.10;;;;;25.00;101215.00;;;;10453064;28;20603;-79
2022/07/19 06:02:29;;;;;;;4.65;2.00;;;;;25.70;101203.00;;;;10443110;28;20312;-79
2022/07/19 06:07:31;;;;;;;6.60;2.22;;;;;26.30;101205.00;;;;10427871;28;20202;-79
2022/07/19 06:12:33;;;;;;;10.90;2.63;;;;;26.90;101207.00;;;;10485769;28;20216;-79
2022/07/19 06:17:35;;;;;;;5.13;1.92;;;;;27.50;101218.00;;;;10444584;28;20279;-79
2022/07/19 06:22:38;;;;;;;3.08;2.15;;;;;28.00;101221.00;;;;10427703;28;20569;-79
2022/07/19 06:27:40;;;;;;;4.65;2.00;;;;;28.40;101211.00;;;;10442101;28;20196;-79
2022/07/19 06:32:42;;;;;;;3.30;2.10;;;;;28.90;101228.00;;;;10432049;28;20186;-79
2022/07/19 06:37:43;;;;;;;3.58;1.95;;;;;29.40;101234.00;;;;10427469;28;20209;-79
2022/07/19 06:42:45;;;;;;;2.65;1.73;;;;;29.80;101221.00;;;;10443243;28;20680;-78
2022/07/19 06:47:47;;;;;;;3.75;2.15;;;;;30.20;101227.00;;;;10442421;28;20218;-79
2022/07/19 06:52:50;;;;;;;4.95;1.88;;;;;30.60;101223.00;;;;10458778;28;20191;-79
2022/07/19 06:57:52;;;;;;;3.03;1.83;;;;;31.00;101222.00;;;;10443288;28;20225;-79
2022/07/19 07:02:54;;;;;;;3.75;1.98;;;;;31.40;101223.00;;;;10448056;28;20236;-80
2022/07/19 07:07:56;;;;;;;2.40;1.83;;;;;31.90;101216.00;;;;10435888;28;20671;-79
2022/07/19 07:12:58;;;;;;;3.38;1.65;;;;;32.30;101211.00;;;;10434542;28;20665;-80
2022/07/19 07:18:00;;;;;;;6.78;1.90;;;;;32.80;101209.00;;;;10444907;28;20209;-80
2022/07/19 07:23:03;;;;;;;4.40;2.00;;;;;33.00;101204.00;;;;10438946;28;20285;-79
2022/07/19 07:28:05;;;;;;;5.68;2.20;;;;;33.20;101206.00;;;;10441568;28;20194;-79
2022/07/19 07:33:07;;;;;;;7.47;2.42;;;;;33.60;101201.00;;;;10447756;28;20682;-79
2022/07/19 07:38:09;;;;;;;2.85;1.80;;;;;34.00;101198.00;;;;10470951;28;20690;-79
2022/07/19 07:43:11;;;;;;;3.25;2.00;;;;;34.40;101191.00;;;;10441318;28;20216;-78
2022/07/19 07:48:13;;;;;;;4.43;2.10;;;;;34.70;101180.00;;;;10499434;28;20189;-79
2022/07/19 07:53:15;;;;;;;3.55;2.30;;;;;34.90;101177.00;;;;10448339;28;20214;-79
2022/07/19 07:58:17;;;;;;;6.10;2.40;;;;;35.10;101174.00;;;;10444414;28;20218;-79
2022/07/19 08:03:20;;;;;;;7.53;2.85;;;;;35.40;101177.00;;;;10451047;28;20308;-79
2022/07/19 08:08:26;;;;;;;7.13;2.08;;;;;35.90;101171.00;;;;10437837;28;20262;-80
2022/07/19 08:13:30;;;;;;;5.43;1.95;;;;;36.60;101168.00;;;;10434361;28;20676;-80
2022/07/19 08:18:33;;;;;;;5.05;2.30;;;;;36.90;101166.00;;;;10455996;28;20271;-80
2022/07/19 08:23:41;;;;;;;6.70;2.42;;;;;37.10;101171.00;;;;10439674;28;20189;-80
2022/07/19 08:28:44;;;;;;;3.88;1.88;;;;;37.30;101165.00;;;;10460063;28;20196;-80
2022/07/19 08:33:47;;;;;;;6.57;2.47;;;;;37.60;101168.00;;;;10452737;28;20205;-79
2022/07/19 08:38:49;;;;;;;7.85;2.45;;;;;37.70;101159.00;;;;10441289;28;20231;-79
2022/07/19 08:43:51;;;;;;;6.00;2.25;;;;;38.10;101158.00;;;;10460433;28;20744;-80
2022/07/19 08:48:53;;;;;;;4.50;1.92;;;;;38.40;101160.00;;;;10465704;28;20599;-81
2022/07/19 08:53:56;;;;;;;7.22;2.75;;;;;38.60;101160.00;;;;10442321;28;20573;-80
2022/07/19 08:58:59;;;;;;;5.78;2.30;;;;;38.80;101145.00;;;;10451364;28;20222;-80
2022/07/19 09:04:04;;;;;;;5.95;2.50;;;;;39.10;101149.00;;;;10423581;28;20243;-81
2022/07/19 09:09:07;;;;;;;4.75;2.15;;;;;39.20;101147.00;;;;10468275;28;20174;-81
2022/07/19 09:14:10;;;;;;;5.20;2.28;;;;;39.50;101148.00;;;;10467469;28;20192;-80
2022/07/19 09:19:13;;;;;;;4.75;2.50;;;;;39.80;101145.00;;;;10424483;28;20588;-81
2022/07/19 09:24:15;;;;;;;4.43;1.98;;;;;40.10;101138.00;;;;10432709;28;20193;-81
2022/07/19 09:29:18;;;;;;;3.47;2.10;;;;;40.30;101136.00;;;;10423209;28;20186;-81
2022/07/19 09:34:31;;;;;;;5.97;2.00;;;;;40.50;101135.00;;;;10437626;28;20275;-80
2022/07/19 09:39:33;;;;;;;7.57;2.45;;;;;40.80;101120.00;;;;10446513;28;20221;-81
2022/07/19 09:44:35;;;;;;;8.65;2.53;;;;;41.10;101124.00;;;;10438285;28;20201;-80
2022/07/19 09:49:38;;;;;;;7.00;2.28;;;;;41.10;101115.00;;;;10422032;28;20201;-80
2022/07/19 09:54:40;;;;;;;5.53;2.38;;;;;41.50;101113.00;;;;10446756;28;20198;-79
2022/07/19 09:59:50;;;;;;;8.43;2.35;;;;;41.90;101106.00;;;;10442426;28;20622;-80
2022/07/19 10:04:53;;;;;;;4.72;2.00;;;;;42.20;101101.00;;;;10495590;28;20189;-80
2022/07/19 10:09:55;;;;;;;11.77;2.60;;;;;42.50;101099.00;;;;10429959;28;20189;-80
2022/07/19 10:14:57;;;;;;;4.50;2.20;;;;;42.60;101093.00;;;;10466498;28;20201;-81
2022/07/19 10:20:00;;;;;;;5.63;2.22;;;;;42.50;101089.00;;;;10445205;28;20218;-81
2022/07/19 10:25:05;;;;;;;4.65;2.45;;;;;42.40;101089.00;;;;10420052;28;20561;-80
2022/07/19 10:30:09;;;;;;;5.95;2.28;;;;;42.30;101085.00;;;;10445290;28;20185;-81
2022/07/19 10:35:16;;;;;;;7.85;2.58;;;;;42.50;101074.00;;;;10447260;28;20239;-80
2022/07/19 10:40:40;;;;;;;3.47;2.25;;;;;42.90;101070.00;;;;10461824;28;20231;-82
2022/07/19 10:45:53;;;;;;;7.45;2.40;;;;;43.20;101066.00;;;;10434642;28;20725;-81
2022/07/19 10:50:57;;;;;;;2.70;1.90;;;;;43.40;101054.00;;;;10461415;28;20232;-81
2022/07/19 10:56:20;;;;;;;3.03;1.70;;;;;43.60;101050.00;;;;10453621;28;20216;-80
2022/07/19 11:01:23;;;;;;;6.45;2.42;;;;;43.80;101052.00;;;;10424722;28;20251;-81
2022/07/19 11:06:27;;;;;;;5.05;2.03;;;;;44.00;101036.00;;;;10430284;28;20201;-80
2022/07/19 11:11:29;;;;;;;3.00;1.70;;;;;44.10;101042.00;;;;10457786;28;20197;-80
2022/07/19 11:16:31;;;;;;;6.95;2.42;;;;;44.40;101028.00;;;;10465196;28;20702;-81
2022/07/19 11:21:36;;;;;;;5.68;1.90;;;;;44.40;101020.00;;;;10461231;28;20235;-81
2022/07/19 11:26:39;;;;;;;2.90;1.92;;;;;44.50;101011.00;;;;10436331;28;20280;-81
2022/07/19 11:31:48;;;;;;;8.23;2.10;;;;;44.20;101017.00;;;;10453550;28;20193;-81
2022/07/19 11:36:57;;;;;;;4.63;2.00;;;;;44.20;101007.00;;;;10406650;28;20263;-79
2022/07/19 11:41:59;;;;;;;4.38;2.30;;;;;44.10;101007.00;;;;10400482;28;20795;-78
2022/07/19 11:47:02;;;;;;;7.15;2.28;;;;;44.40;101004.00;;;;10450757;28;20246;-81
2022/07/19 11:52:04;;;;;;;4.30;2.03;;;;;44.80;100987.00;;;;10448485;28;20231;-78
2022/07/19 11:57:25;;;;;;;5.70;2.20;;;;;44.80;100993.00;;;;10464502;28;20251;-80
2022/07/19 12:02:27;;;;;;;5.85;2.05;;;;;44.80;100983.00;;;;10449314;28;20267;-79
2022/07/19 12:07:30;;;;;;;3.70;2.08;;;;;44.90;100968.00;;;;10449324;28;20185;-79
2022/07/19 12:12:39;;;;;;;3.85;2.60;;;;;44.80;100959.00;;;;10433696;28;20823;-80
2022/07/19 12:17:54;;;;;;;5.15;2.20;;;;;45.00;100963.00;;;;10478797;28;20213;-80
2022/07/19 12:23:11;;;;;;;6.53;2.63;;;;;44.90;100954.00;;;;10463165;28;20193;-80
2022/07/19 12:28:25;;;;;;;7.32;2.50;;;;;44.60;100946.00;;;;10439306;28;20719;-80
2022/07/19 12:33:27;;;;;;;6.32;2.38;;;;;44.70;100940.00;;;;10463176;28;20197;-80
2022/07/19 12:38:33;;;;;;;4.53;2.17;;;;;45.00;100937.00;;;;10446693;28;20236;-80
2022/07/19 12:43:35;;;;;;;5.32;2.45;;;;;45.10;100937.00;;;;10434352;28;20185;-80
2022/07/19 12:48:37;;;;;;;5.13;2.30;;;;;45.20;100917.00;;;;10449489;28;20185;-80
2022/07/19 12:53:39;;;;;;;11.73;3.03;;;;;45.10;100929.00;;;;10427619;28;20185;-80
2022/07/19 13:04:02;;;;;;;7.90;4.30;;;;;44.50;100906.00;;;;10468269;28;20627;-80
2022/07/19 13:09:04;;;;;;;7.20;3.63;;;;;44.30;100906.00;;;;10458511;28;20266;-79
2022/07/19 13:14:06;;;;;;;6.45;3.40;;;;;44.90;100895.00;;;;10461098;28;20295;-80
2022/07/19 13:19:08;;;;;;;6.88;2.25;;;;;45.50;100892.00;;;;10430675;28;20208;-80
2022/07/19 13:24:10;;;;;;;7.20;2.45;;;;;45.60;100890.00;;;;10443887;28;20197;-80
2022/07/19 13:29:33;;;;;;;3.08;2.15;;;;;46.50;100878.00;;;;10442937;28;20181;-80
2022/07/19 13:34:36;;;;;;;5.50;2.50;;;;;47.30;100868.00;;;;10421011;28;20625;-80
2022/07/19 13:39:39;;;;;;;4.43;2.22;;;;;48.00;100856.00;;;;10444512;28;20208;-81
2022/07/19 13:44:41;;;;;;;4.97;2.28;;;;;48.30;100853.00;;;;10459911;28;20205;-80
2022/07/19 13:49:43;;;;;;;5.00;2.20;;;;;48.90;100852.00;;;;10419336;28;20805;-80
2022/07/19 13:54:45;;;;;;;7.57;2.00;;;;;48.20;100848.00;;;;10402991;28;20228;-81
2022/07/19 13:59:47;;;;;;;7.22;2.80;;;;;48.80;100837.00;;;;10419175;28;20724;-81
2022/07/19 14:04:49;;;;;;;2.95;1.77;;;;;49.50;100835.00;;;;10423365;28;20181;-81
2022/07/19 14:09:51;;;;;;;7.15;1.73;;;;;50.20;100826.00;;;;10446998;28;20719;-81
2022/07/19 14:14:53;;;;;;;7.50;2.08;;;;;50.40;100817.00;;;;10467388;28;20204;-80
2022/07/19 14:20:04;;;;;;;8.05;2.00;;;;;49.80;100812.00;;;;10482867;28;20216;-81
2022/07/19 14:25:07;;;;;;;4.47;1.92;;;;;49.50;100804.00;;;;10459527;28;20284;-80
2022/07/19 14:30:09;;;;;;;4.80;1.75;;;;;48.70;100796.00;;;;10451336;28;20712;-81
2022/07/19 14:35:12;;;;;;;2.38;1.67;;;;;47.80;100795.00;;;;10466262;28;20204;-81
2022/07/19 14:40:14;;;;;;;3.55;1.90;;;;;46.90;100792.00;;;;10465241;28;20217;-81
2022/07/19 14:45:16;;;;;;;6.80;2.00;;;;;46.20;100784.00;;;;10409620;28;20193;-82
2022/07/19 14:50:19;;;;;;;6.10;1.70;;;;;45.50;100778.00;;;;10447630;28;20652;-81
2022/07/19 14:55:21;;;;;;;3.88;1.50;;;;;44.90;100769.00;;;;10448609;28;20190;-81
2022/07/19 15:00:23;;;;;;;3.10;1.48;;;;;44.50;100758.00;;;;10465643;28;20216;-82
2022/07/19 15:05:25;;;;;;;3.42;1.80;;;;;44.50;100764.00;;;;10440913;28;20251;-80
2022/07/19 15:10:27;;;;;;;3.83;1.33;;;;;44.40;100750.00;;;;10412625;28;20181;-80
2022/07/19 15:15:29;;;;;;;2.67;1.65;;;;;44.40;100747.00;;;;10440180;28;20228;-81
2022/07/19 15:20:31;;;;;;;7.75;1.70;;;;;44.50;100738.00;;;;10417959;28;20247;-81
2022/07/19 15:25:33;;;;;;;5.13;2.10;;;;;44.50;100736.00;;;;10440472;28;20201;-81
2022/07/19 15:30:35;;;;;;;7.68;4.60;;;;;44.40;100736.00;;;;10448729;28;20193;-82
2022/07/19 15:35:37;;;;;;;6.43;3.42;;;;;44.20;100734.00;;;;10446883;28;20204;-82
2022/07/19 15:40:39;;;;;;;3.20;2.47;;;;;43.90;100716.00;;;;10405019;28;20608;-82
2022/07/19 15:45:48;;;;;;;3.67;1.83;;;;;43.50;100719.00;;;;10413706;28;20472;-82
2022/07/19 15:50:50;;;;;;;2.63;1.55;;;;;43.10;100717.00;;;;10456158;28;20193;-81
2022/07/19 15:55:52;;;;;;;3.20;1.80;;;;;42.40;100705.00;;;;10449658;28;20189;-81
2022/07/19 16:00:54;;;;;;;5.10;1.60;;;;;41.80;100699.00;;;;10469039;28;20270;-81
2022/07/19 16:05:56;;;;;;;2.30;1.90;;;;;41.20;100690.00;;;;10452114;28;20186;-81
2022/07/19 16:10:58;;;;;;;3.33;1.80;;;;;40.70;100691.00;;;;10426889;28;20181;-79
2022/07/19 16:16:00;;;;;;;1.77;1.35;;;;;40.30;100682.00;;;;10469922;28;20666;-80
2022/07/19 16:21:02;;;;;;;2.92;1.50;;;;;40.00;100682.00;;;;10443005;28;20220;-80
2022/07/19 16:26:06;;;;;;;3.97;1.90;;;;;39.70;100684.00;;;;10455941;28;20197;-80
2022/07/19 16:31:08;;;;;;;3.47;1.52;;;;;39.50;100670.00;;;;10417239;28;20194;-80
2022/07/19 16:36:11;;;;;;;4.65;1.70;;;;;39.30;100667.00;;;;10449213;28;20197;-80
2022/07/19 16:41:13;;;;;;;1.88;1.50;;;;;39.10;100659.00;;;;10459853;28;20328;-80
2022/07/19 16:46:15;;;;;;;4.00;1.70;;;;;38.90;100658.00;;;;10455389;28;20189;-81
2022/07/19 16:51:17;;;;;;;3.45;1.70;;;;;38.70;100649.00;;;;10447883;28;20185;-79
2022/07/19 16:56:19;;;;;;;8.75;2.22;;;;;38.60;100646.00;;;;10418610;28;20194;-80
2022/07/19 17:01:21;;;;;;;4.30;1.75;;;;;38.50;100643.00;;;;10428540;28;20756;-79
2022/07/19 17:06:23;;;;;;;2.88;1.70;;;;;38.40;100646.00;;;;10442174;28;20229;-79
2022/07/19 17:11:25;;;;;;;4.22;1.60;;;;;38.20;100636.00;;;;10460737;28;20185;-79
2022/07/19 17:16:27;;;;;;;3.97;1.85;;;;;38.10;100645.00;;;;10461091;28;20193;-79
2022/07/19 17:21:29;;;;;;;2.50;1.50;;;;;38.00;100641.00;;;;10459874;28;20677;-80
2022/07/19 17:26:31;;;;;;;3.47;1.73;;;;;37.90;100644.00;;;;10434690;28;20695;-79
2022/07/19 17:31:33;;;;;;;2.55;1.83;;;;;37.70;100639.00;;;;10443770;28;20196;-79
2022/07/19 17:36:35;;;;;;;3.92;1.95;;;;;37.50;100638.00;;;;10460627;28;20260;-79
2022/07/19 17:41:37;;;;;;;5.10;1.88;;;;;37.40;100643.00;;;;10446782;28;20217;-79
2022/07/19 17:46:39;;;;;;;4.35;2.08;;;;;37.20;100630.00;;;;10455751;28;20194;-79
2022/07/19 17:51:42;;;;;;;2.63;2.03;;;;;37.00;100638.00;;;;10436865;28;20187;-79
2022/07/19 17:56:44;;;;;;;2.75;2.00;;;;;36.80;100632.00;;;;10426643;28;20236;-79
2022/07/19 18:01:46;;;;;;;6.18;1.77;;;;;36.70;100631.00;;;;10442478;28;20647;-79
2022/07/19 18:06:48;;;;;;;5.88;2.03;;;;;36.50;100625.00;;;;10427219;28;20194;-79
2022/07/19 18:11:50;;;;;;;3.08;2.08;;;;;36.40;100622.00;;;;10439306;28;20924;-79
2022/07/19 18:16:53;;;;;;;3.45;1.77;;;;;36.20;100623.00;;;;10418105;28;20209;-79
2022/07/19 18:22:11;;;;;;;5.32;1.55;;;;;36.00;100631.00;;;;10434737;28;20217;-79
2022/07/19 18:27:13;;;;;;;4.57;2.03;;;;;35.80;100631.00;;;;10438045;28;20256;-79
2022/07/19 18:32:15;;;;;;;4.38;2.05;;;;;35.50;100631.00;;;;10439070;28;20259;-79
2022/07/19 18:37:17;;;;;;;5.50;1.80;;;;;35.20;100638.00;;;;10458900;28;20186;-79
2022/07/19 18:42:19;;;;;;;3.92;1.95;;;;;35.00;100631.00;;;;10424934;28;20186;-79
2022/07/19 18:47:21;;;;;;;5.80;2.30;;;;;34.70;100633.00;;;;10441170;28;20190;-79
2022/07/19 18:52:25;;;;;;;5.43;2.10;;;;;34.50;100630.00;;;;10459212;28;20185;-79
2022/07/19 18:57:27;;;;;;;5.57;2.30;;;;;34.30;100634.00;;;;10449403;28;20201;-79
2022/07/19 19:02:30;;;;;;;2.88;1.67;;;;;34.10;100631.00;;;;10464369;28;20224;-79
2022/07/19 19:07:32;;;;;;;4.13;2.17;;;;;33.80;100634.00;;;;10469129;28;20239;-78
2022/07/19 19:12:34;;;;;;;2.13;1.92;;;;;33.40;100632.00;;;;10414083;28;20281;-79
2022/07/19 19:17:36;;;;;;;2.85;2.33;;;;;33.00;100634.00;;;;10440870;28;20251;-78
2022/07/19 19:22:38;;;;;;;5.80;1.85;;;;;32.50;100635.00;;;;10440428;28;20319;-78
2022/07/19 19:27:42;;;;;;;4.97;2.17;;;;;32.10;100640.00;;;;10481169;28;20279;-79
2022/07/19 19:32:47;;;;;;;6.07;2.22;;;;;31.80;100640.00;;;;10480935;28;20205;-78
2022/07/19 19:37:49;;;;;;;6.38;2.13;;;;;31.40;100633.00;;;;10446960;28;20580;-78
2022/07/19 19:42:51;;;;;;;14.18;2.90;;;;;31.00;100637.00;;;;10422189;28;20293;-78
2022/07/19 19:47:53;;;;;;;7.15;2.75;;;;;30.70;100637.00;;;;10426182;28;20190;-78
2022/07/19 19:52:56;;;;;;;8.00;2.60;;;;;30.40;100630.00;;;;10462784;28;20272;-78
2022/07/19 19:58:00;;;;;;;3.35;2.50;;;;;30.30;100641.00;;;;10497530;28;20205;-78
2022/07/19 20:03:02;;;;;;;10.55;2.80;;;;;30.20;100646.00;;;;10468906;28;20222;-78
2022/07/19 20:08:04;;;;;;;5.18;2.88;;;;;30.00;100650.00;;;;10431594;28;20190;-78
2022/07/19 20:13:06;;;;;;;6.07;2.65;;;;;29.70;100647.00;;;;10485694;28;20189;-78
2022/07/19 20:18:08;;;;;;;7.40;2.95;;;;;29.50;100649.00;;;;10419548;28;20206;-78
2022/07/19 20:23:10;;;;;;;4.78;2.92;;;;;29.40;100649.00;;;;10421103;28;20198;-78
2022/07/19 20:28:12;;;;;;;3.47;2.60;;;;;29.50;100640.00;;;;10418935;28;20198;-78
2022/07/19 20:33:14;;;;;;;5.45;2.15;;;;;29.40;100640.00;;;;10442105;28;20201;-78
2022/07/19 20:38:24;;;;;;;7.93;2.38;;;;;29.30;100645.00;;;;10475398;28;20224;-78
2022/07/19 20:43:26;;;;;;;7.05;2.75;;;;;29.20;100636.00;;;;10459459;28;20232;-78
2022/07/19 20:48:28;;;;;;;4.47;2.55;;;;;29.00;100635.00;;;;10436890;28;20190;-78
2022/07/19 20:53:30;;;;;;;5.35;2.50;;;;;28.90;100636.00;;;;10403072;28;20285;-78
2022/07/19 20:58:31;;;;;;;3.75;2.33;;;;;28.90;100640.00;;;;10403322;28;20214;-78
2022/07/19 21:03:33;;;;;;;7.10;2.40;;;;;28.80;100643.00;;;;10483473;28;20279;-80
2022/07/19 21:08:35;;;;;;;3.97;2.40;;;;;28.90;100644.00;;;;10460922;28;20194;-78
2022/07/19 21:13:37;;;;;;;4.55;2.70;;;;;28.90;100643.00;;;;10477156;28;20528;-79
2022/07/19 21:18:39;;;;;;;5.18;2.90;;;;;28.70;100637.00;;;;10460052;28;20244;-79
2022/07/19 21:23:42;;;;;;;7.28;2.60;;;;;28.60;100644.00;;;;10461262;28;20931;-79
2022/07/19 21:28:44;;;;;;;5.75;3.00;;;;;28.50;100645.00;;;;10460004;28;20190;-78
2022/07/19 21:34:01;;;;;;;6.65;2.63;;;;;28.30;100643.00;;;;10459769;28;20200;-78
2022/07/19 21:39:06;;;;;;;2.47;2.25;;;;;28.30;100632.00;;;;10444713;28;20668;-79
2022/07/19 21:44:08;;;;;;;4.88;2.55;;;;;28.40;100623.00;;;;10460022;28;20212;-79
2022/07/19 21:49:10;;;;;;;5.18;2.60;;;;;28.40;100621.00;;;;10457244;28;20189;-79
2022/07/19 21:54:12;;;;;;;8.32;2.17;;;;;28.50;100619.00;;;;10437022;28;20189;-79
2022/07/19 21:59:14;;;;;;;6.47;2.80;;;;;28.50;100627.00;;;;10434713;28;20240;-79
2022/07/19 22:04:16;;;;;;;5.38;2.30;;;;;28.70;100631.00;;;;10416136;28;20284;-79
2022/07/19 22:09:18;;;;;;;7.22;2.67;;;;;28.60;100638.00;;;;10452644;28;20214;-79
2022/07/19 22:14:20;;;;;;;4.68;2.90;;;;;28.60;100631.00;;;;10475978;28;20188;-79
2022/07/19 22:19:23;;;;;;;3.83;2.35;;;;;28.40;100638.00;;;;10474922;28;20576;-79
2022/07/19 22:24:25;;;;;;;4.18;2.65;;;;;28.30;100638.00;;;;10462988;28;20189;-79
2022/07/19 22:29:27;;;;;;;5.53;2.50;;;;;28.10;100635.00;;;;10450246;28;20213;-79
2022/07/19 22:34:28;;;;;;;3.88;2.30;;;;;28.00;100641.00;;;;10456990;28;20255;-79
2022/07/19 22:39:30;;;;;;;2.83;2.20;;;;;27.80;100646.00;;;;10447707;28;20206;-79
2022/07/19 22:44:32;;;;;;;4.07;2.78;;;;;27.60;100666.00;;;;10434903;28;20197;-79
2022/07/19 22:49:35;;;;;;;7.63;3.03;;;;;27.60;100714.00;;;;10472524;28;20198;-79
2022/07/19 22:54:37;;;;;;;9.82;3.28;;;;;27.80;100725.00;;;;10426309;28;20281;-79
2022/07/19 22:59:39;;;;;;;8.20;2.97;;;;;28.00;100690.00;;;;10425152;28;20325;-79
2022/07/19 23:04:41;;;;;;;7.00;3.10;;;;;28.20;100717.00;;;;10441183;28;20281;-79
2022/07/19 23:09:43;;;;;;;6.57;3.08;;;;;28.10;100706.00;;;;10486410;28;20189;-80
2022/07/19 23:14:45;;;;;;;2.88;2.53;;;;;28.00;100704.00;;;;10433301;28;20190;-79
2022/07/19 23:19:47;;;;;;;6.75;3.10;;;;;27.70;100699.00;;;;10459138;28;20209;-79
2022/07/19 23:24:49;;;;;;;5.78;2.92;;;;;27.50;100691.00;;;;10441622;28;20198;-79
2022/07/19 23:29:52;;;;;;;7.28;3.13;;;;;27.40;100697.00;;;;10481945;28;20541;-79
2022/07/19 23:34:54;;;;;;;6.05;2.63;;;;;27.20;100706.00;;;;10449733;28;20236;-79
2022/07/19 23:39:56;;;;;;;7.03;2.90;;;;;27.00;100712.00;;;;10452363;28;20327;-79
2022/07/19 23:44:58;;;;;;;6.03;2.92;;;;;26.80;100713.00;;;;10463019;28;20296;-79
2022/07/19 23:50:00;;;;;;;8.30;3.10;;;;;26.60;100719.00;;;;10417608;28;20251;-79
2022/07/19 23:55:02;;;;;;;5.80;2.80;;;;;26.30;100735.00;;;;10459630;28;20220;-79
